METAR Data
IDs: Format: Raw Decoded Include TAF

Data at: 1330 UTC 26 Feb 2021

LFRC 261300Z AUTO 04006KT 360V080 9999 FEW016 10/05 Q1037 NOSIG